首页
METAR-TAF:

METAR-TAF

机场 :

Felker Army Airfield

Fort Eustis, 弗吉尼亚州, 美国

纬度: 37-08N, 经度: 076-37W, 海拔: 4米

当前天气观测

该预报发布于1小时和3分钟前的01:56 UTC
风速9节,风向,有时为16节阵风
温度 17°C
湿度 59%
气压 1012 hPa
能見度: 16.1公里
阴天层高于4500英尺

METAR: KFAF 170156Z AUTO 36009G16KT 10SM OVC045 17/09 A2988 RMK AO2 SLP122 T01710088 $

时间: 22:59 (02:59 UTC)

预报

该预报发布于59分钟前的02:00 UTC
预报有效从16日的 02点(UTC)到 17日的 08点(UTC)
风速6节,风向多变
能见度10公里或以上
天空无云
成为
从 16日的 17点(UTC)到 16日的 18点(UTC)
风速9节,风向南转南东
能见度10公里或以上
多云层高于3000英尺
成为
从 16日的 21点(UTC)到 16日的 22点(UTC)
风速12节,风向西转西北
能見度: 6000
阴天层高于2000英尺
小阵雨
成为
从 17日的 03点(UTC)到 17日的 04点(UTC)
风速9节,风向西转西北
能見度: 1810
少量云层高于3000英尺

TAF: KFAF 160200Z 1602/1708 VRB06KT 9999 SKC QNH2973INS BECMG 1617/1618 15009KT 9999 BKN030 QNH2971INS BECMG 1621/1622 30012KT 6000 -SHRA OVC020 QNH2974INS BECMG 1703/1704 30009KT 9999 NSW FEW030 QNH2992INS TX28/1618Z TN19/1611Z LAST NO AMDS AFT 1603 NEXT 1810

超过4000个机场的气象观测和天气预报(METAR&TAF报告)。

可查询的气象台以黄色和红色小点在地图上表示。

将鼠标移到小点上方,可查看气象台名称。

然后点击查看天气观测和预报。

如需切换地图:点击带黑十字的绿色按钮放大地图;点击带横线的绿色按钮缩小地图;或者点击绿色箭头查看邻近地区的地图。


METAR-TAF: